Time;durP1;ratioP1;P1;durP2;ratioP2;P2;SDS_P1;SDS_P2;PMS_P1;PMS_P2;Temp;Humidity;BMP_temperature;BMP_pressure;BME280_temperature;BME280_humidity;BME280_pressure;Samples;Min_cycle;Max_cycle;Signal;HPM_P1;HPM_P2
2022/10/31 00:02:12;;;;;;;34.13;13.80;;;;;;;42.20;32.96;100875.75;5011149;28;20683;-73
2022/10/31 00:04:38;;;;;;;27.37;12.27;;;;;;;42.31;33.22;100874.19;5005233;28;20225;-75
2022/10/31 00:07:04;;;;;;;24.50;11.80;;;;;;;42.44;33.07;100871.50;4991455;28;20232;-74
2022/10/31 00:09:30;;;;;;;20.13;11.47;;;;;;;42.44;33.19;100866.03;5012098;28;20161;-74
2022/10/31 00:11:56;;;;;;;20.40;11.37;;;;;;;42.49;33.18;100860.38;5011216;28;20893;-74
2022/10/31 00:14:22;;;;;;;20.83;11.13;;;;;;;42.34;32.83;100854.41;5011327;28;20182;-74
2022/10/31 00:16:47;;;;;;;32.00;12.53;;;;;;;42.06;33.56;100851.47;5012883;28;20264;-74
2022/10/31 00:19:13;;;;;;;41.93;12.50;;;;;;;42.09;33.30;100852.72;5011448;28;20420;-74
2022/10/31 00:21:39;;;;;;;25.70;11.00;;;;;;;42.07;33.38;100849.53;5015187;28;20579;-73
2022/10/31 00:24:06;;;;;;;26.67;12.87;;;;;;;42.26;33.69;100858.03;5034598;28;20536;-73
2022/10/31 00:26:32;;;;;;;22.37;11.23;;;;;;;42.14;33.61;100853.31;5002100;28;20427;-74
2022/10/31 00:28:59;;;;;;;25.30;11.83;;;;;;;42.35;33.59;100856.00;5034572;28;20434;-74
2022/10/31 00:31:25;;;;;;;21.47;11.90;;;;;;;42.44;33.50;100847.75;5034539;28;20510;-76
2022/10/31 00:33:51;;;;;;;24.53;11.87;;;;;;;42.52;33.11;100849.56;5036048;28;20487;-74
2022/10/31 00:36:18;;;;;;;30.00;11.30;;;;;;;42.33;33.68;100857.47;5034971;28;20455;-73
2022/10/31 00:38:45;;;;;;;21.23;12.00;;;;;;;42.26;33.16;100849.84;5018222;28;20967;-74
2022/10/31 00:41:13;;;;;;;28.93;14.40;;;;;;;42.08;33.40;100853.84;5034862;28;20457;-74
2022/10/31 00:43:39;;;;;;;22.97;10.60;;;;;;;42.27;33.45;100848.72;5034698;28;20450;-74
2022/10/31 00:46:05;;;;;;;22.57;10.17;;;;;;;42.21;33.20;100844.63;5035861;28;20814;-74
2022/10/31 00:48:31;;;;;;;20.60;10.63;;;;;;;42.27;33.16;100854.16;5017805;28;20415;-74
2022/10/31 00:50:57;;;;;;;21.03;9.07;;;;;;;42.22;33.31;100854.38;5017705;28;20526;-74
2022/10/31 00:53:23;;;;;;;24.83;8.73;;;;;;;42.36;33.45;100843.19;5034009;28;20429;-74
2022/10/31 00:55:49;;;;;;;27.37;12.33;;;;;;;42.35;33.53;100838.84;5016069;28;20956;-74
2022/10/31 00:58:15;;;;;;;21.70;11.00;;;;;;;42.35;33.47;100834.19;4997945;28;20571;-73
2022/10/31 01:00:42;;;;;;;22.90;10.30;;;;;;;42.18;33.62;100836.34;5014218;28;20800;-73
2022/10/31 01:03:08;;;;;;;23.17;11.03;;;;;;;42.26;33.53;100833.50;4997930;28;20515;-75
2022/10/31 01:05:34;;;;;;;20.03;9.80;;;;;;;42.20;32.94;100839.50;5015760;28;20428;-73
2022/10/31 01:08:00;;;;;;;26.93;12.00;;;;;;;42.31;32.97;100857.03;4981412;28;20476;-74
2022/10/31 01:10:25;;;;;;;26.97;9.10;;;;;;;42.37;32.70;100853.75;5015531;28;20401;-74
2022/10/31 01:12:51;;;;;;;30.37;10.43;;;;;;;42.40;32.27;100846.81;4998120;28;20444;-74
2022/10/31 01:15:22;;;;;;;26.00;10.30;;;;;;;42.16;33.01;100842.09;5013886;28;20284;-74
2022/10/31 01:17:49;;;;;;;26.40;9.77;;;;;;;42.12;33.11;100833.78;5014088;28;20421;-74
2022/10/31 01:20:16;;;;;;;20.17;11.37;;;;;;;41.54;34.07;100835.53;5014110;28;20428;-74
2022/10/31 01:25:12;;;;;;;30.57;12.23;;;;;;;41.98;34.37;100827.81;5013609;28;20464;-73
2022/10/31 01:27:38;;;;;;;29.63;13.10;;;;;;;42.11;33.99;100824.03;4997143;28;20456;-73
2022/10/31 01:30:05;;;;;;;25.23;11.53;;;;;;;42.29;33.95;100826.56;5015319;28;20499;-74
2022/10/31 01:32:32;;;;;;;25.63;11.43;;;;;;;42.23;33.74;100831.44;4997107;28;20982;-73
2022/10/31 01:34:58;;;;;;;22.50;12.17;;;;;;;42.10;33.80;100840.69;4996362;28;20933;-73
2022/10/31 01:37:23;;;;;;;19.10;11.10;;;;;;;41.96;34.06;100837.47;4997439;28;20447;-73
2022/10/31 01:39:49;;;;;;;25.77;12.10;;;;;;;41.78;34.41;100836.81;4996948;28;20444;-73
2022/10/31 01:42:19;;;;;;;27.03;12.83;;;;;;;41.97;33.96;100828.94;4997028;28;20425;-74
2022/10/31 01:44:54;;;;;;;25.47;12.77;;;;;;;41.79;34.04;100825.59;5014796;28;20593;-73
2022/10/31 01:47:45;;;;;;;23.60;12.30;;;;;;;41.68;34.55;100832.56;4996977;28;20430;-73
2022/10/31 01:50:34;;;;;;;37.27;15.33;;;;;;;41.57;34.57;100820.47;4996844;28;20436;-73
2022/10/31 01:53:01;;;;;;;21.33;13.93;;;;;;;41.78;34.42;100832.16;4996663;28;20460;-73
2022/10/31 01:55:32;;;;;;;25.30;13.20;;;;;;;41.73;34.80;100829.63;5014421;28;20448;-73
2022/10/31 01:58:05;;;;;;;30.00;13.63;;;;;;;41.66;34.42;100828.56;5014761;28;20415;-73
2022/10/31 02:00:31;;;;;;;24.27;12.03;;;;;;;41.54;34.58;100823.84;4996695;28;20456;-73
2022/10/31 02:02:59;;;;;;;22.50;11.80;;;;;;;41.05;35.66;100823.50;5012904;28;20460;-73
2022/10/31 02:05:28;;;;;;;15.20;11.50;;;;;;;41.19;35.31;100824.06;5014234;28;20436;-73
2022/10/31 02:08:11;;;;;;;21.57;11.73;;;;;;;41.69;34.77;100819.75;4996690;28;20421;-73
2022/10/31 02:10:37;;;;;;;24.90;12.63;;;;;;;41.91;34.65;100824.84;4996448;28;20814;-73
2022/10/31 02:13:06;;;;;;;18.73;10.93;;;;;;;42.16;34.10;100828.47;5014451;28;20930;-73
2022/10/31 02:15:34;;;;;;;29.57;14.60;;;;;;;42.23;33.96;100817.81;4980298;28;20451;-75
2022/10/31 02:18:01;;;;;;;29.27;13.70;;;;;;;41.89;34.08;100823.59;4996409;28;20444;-75
2022/10/31 02:20:39;;;;;;;35.33;15.77;;;;;;;41.73;34.42;100824.16;5014264;28;20400;-73
2022/10/31 02:23:31;;;;;;;32.40;15.43;;;;;;;41.88;34.60;100825.53;4997503;28;20455;-74
2022/10/31 02:26:36;;;;;;;21.67;12.10;;;;;;;41.78;34.44;100824.00;5013752;28;20424;-73
2022/10/31 02:29:05;;;;;;;25.83;13.67;;;;;;;41.95;34.21;100819.53;4995767;28;20427;-73
2022/10/31 02:32:01;;;;;;;34.93;17.33;;;;;;;41.96;34.58;100824.63;4996216;28;20417;-73
2022/10/31 02:34:30;;;;;;;28.30;16.30;;;;;;;42.21;34.31;100827.47;5013890;28;20393;-74
2022/10/31 02:37:08;;;;;;;27.37;17.33;;;;;;;42.12;34.24;100822.88;4995933;28;20436;-73
2022/10/31 02:40:05;;;;;;;38.23;14.90;;;;;;;42.06;34.43;100828.88;4996024;28;20424;-73
2022/10/31 02:43:14;;;;;;;34.80;15.90;;;;;;;42.07;34.25;100830.47;4969267;28;20468;-73
2022/10/31 02:45:57;;;;;;;31.00;13.57;;;;;;;42.01;34.10;100821.72;4952528;28;20449;-73
2022/10/31 02:48:31;;;;;;;31.60;14.20;;;;;;;42.03;34.39;100818.63;4943010;28;20433;-75
2022/10/31 02:51:00;;;;;;;27.47;15.27;;;;;;;41.99;34.44;100814.97;4973185;28;20454;-74
2022/10/31 02:53:31;;;;;;;34.37;15.50;;;;;;;41.87;34.43;100818.50;4957331;28;20426;-73
2022/10/31 02:56:06;;;;;;;27.40;14.67;;;;;;;42.09;34.08;100817.28;4960174;28;20817;-75
2022/10/31 02:58:36;;;;;;;28.17;15.70;;;;;;;42.11;33.95;100804.13;4976463;28;20453;-73
2022/10/31 03:01:11;;;;;;;25.87;17.13;;;;;;;41.91;33.96;100810.41;4976169;28;20421;-73
2022/10/31 03:03:58;;;;;;;34.37;15.43;;;;;;;41.92;34.06;100804.63;4993739;28;20453;-73
2022/10/31 03:06:33;;;;;;;26.40;13.73;;;;;;;41.89;34.23;100796.34;4958531;28;20454;-73
2022/10/31 03:09:25;;;;;;;19.63;12.80;;;;;;;41.99;34.46;100804.91;4974295;28;20449;-73
2022/10/31 03:12:29;;;;;;;34.60;14.67;;;;;;;41.51;34.47;100800.81;4956746;28;20785;-73
2022/10/31 03:15:12;;;;;;;24.30;14.13;;;;;;;41.67;34.76;100809.16;4953361;28;20584;-73
2022/10/31 03:17:54;;;;;;;33.27;14.03;;;;;;;41.70;34.74;100804.97;4953055;28;20933;-73
2022/10/31 03:20:26;;;;;;;24.03;13.30;;;;;;;41.72;34.21;100810.88;4959877;28;20417;-73
2022/10/31 03:22:54;;;;;;;33.37;14.70;;;;;;;41.69;34.55;100819.75;4959491;28;20511;-74
2022/10/31 03:25:23;;;;;;;26.20;13.83;;;;;;;41.63;34.86;100819.16;4976392;28;20465;-73
2022/10/31 03:27:51;;;;;;;26.30;15.23;;;;;;;41.40;34.68;100818.66;4975935;28;20433;-75
2022/10/31 03:30:17;;;;;;;29.80;15.07;;;;;;;41.74;34.32;100816.78;4959750;28;20449;-75
2022/10/31 03:32:51;;;;;;;30.60;18.07;;;;;;;41.45;34.81;100815.75;4959847;28;20863;-74
2022/10/31 03:35:23;;;;;;;30.57;14.83;;;;;;;41.20;34.86;100819.44;4975640;28;20802;-73
2022/10/31 03:37:52;;;;;;;22.43;12.57;;;;;;;40.89;35.71;100819.75;4975725;28;20944;-73
2022/10/31 03:40:21;;;;;;;28.60;15.53;;;;;;;41.17;35.22;100820.06;4993478;28;20401;-73
2022/10/31 03:42:54;;;;;;;29.63;16.77;;;;;;;41.32;35.00;100823.06;4976303;28;20461;-73
2022/10/31 03:45:26;;;;;;;31.47;15.30;;;;;;;41.17;35.23;100825.53;4943985;28;20432;-74
2022/10/31 03:47:54;;;;;;;33.77;17.20;;;;;;;41.16;35.18;100824.72;4943963;28;20850;-73
2022/10/31 03:50:23;;;;;;;27.47;15.43;;;;;;;41.51;34.96;100832.69;4959538;28;20444;-73
2022/10/31 03:53:01;;;;;;;26.33;15.70;;;;;;;41.34;34.88;100830.88;4940861;28;20509;-73
2022/10/31 03:55:46;;;;;;;27.67;15.90;;;;;;;41.15;35.47;100828.56;4975352;28;20425;-73
2022/10/31 03:58:23;;;;;;;26.83;14.90;;;;;;;41.11;35.68;100838.50;4982737;28;20895;-73
2022/10/31 04:00:52;;;;;;;28.93;15.03;;;;;;;40.91;35.83;100836.56;4980554;28;20443;-74
2022/10/31 04:03:24;;;;;;;24.00;15.33;;;;;;;41.21;35.81;100838.16;4982615;28;20460;-73
2022/10/31 04:05:53;;;;;;;26.17;12.20;;;;;;;41.12;35.17;100848.28;5016745;28;20991;-74
2022/10/31 04:08:24;;;;;;;26.17;12.90;;;;;;;41.15;35.06;100844.09;4982589;28;20423;-73
2022/10/31 04:10:52;;;;;;;29.53;12.40;;;;;;;41.05;35.15;100845.28;4982982;28;20420;-73
2022/10/31 04:13:27;;;;;;;27.73;13.67;;;;;;;40.81;35.36;100854.78;4998734;28;20420;-73
2022/10/31 04:15:55;;;;;;;23.80;12.20;;;;;;;40.60;35.91;100845.75;4998639;28;20854;-73
2022/10/31 04:18:23;;;;;;;29.90;17.83;;;;;;;41.04;35.66;100860.81;4998695;28;20413;-73
2022/10/31 04:20:58;;;;;;;36.27;21.03;;;;;;;41.20;35.22;100862.97;4998558;28;20476;-74
2022/10/31 04:23:26;;;;;;;46.07;23.80;;;;;;;41.41;35.39;100865.75;5016187;28;20479;-74
2022/10/31 04:25:52;;;;;;;36.27;22.53;;;;;;;41.51;35.13;100876.25;4998392;28;20439;-74
2022/10/31 04:28:18;;;;;;;48.93;27.97;;;;;;;41.35;35.20;100876.03;4998577;28;20424;-73
2022/10/31 04:30:44;;;;;;;46.30;25.50;;;;;;;41.52;34.88;100875.94;4998414;28;20459;-73
2022/10/31 04:33:10;;;;;;;41.20;22.23;;;;;;;41.45;34.74;100880.31;4998324;28;20461;-72
2022/10/31 04:35:36;;;;;;;34.83;23.97;;;;;;;41.45;34.63;100889.28;4998567;28;20432;-73
2022/10/31 04:38:02;;;;;;;35.60;20.00;;;;;;;41.42;34.95;100886.41;5016185;28;20408;-73
2022/10/31 04:40:28;;;;;;;38.27;20.67;;;;;;;41.50;34.89;100883.63;5016150;28;20412;-73
2022/10/31 04:42:54;;;;;;;32.57;19.37;;;;;;;41.42;34.56;100881.75;5016098;28;20462;-73
2022/10/31 04:45:20;;;;;;;29.90;18.93;;;;;;;41.39;34.68;100876.97;4998083;28;20464;-73
2022/10/31 04:47:46;;;;;;;27.00;16.83;;;;;;;41.43;34.58;100877.09;4998133;28;20846;-73
2022/10/31 04:50:12;;;;;;;25.83;13.97;;;;;;;41.10;35.19;100880.47;5015944;28;20491;-73
2022/10/31 04:52:42;;;;;;;33.10;16.03;;;;;;;41.32;34.83;100877.50;5015521;28;20572;-73
2022/10/31 04:55:09;;;;;;;26.30;17.33;;;;;;;41.43;34.75;100883.34;5015739;28;20400;-74
2022/10/31 04:57:43;;;;;;;44.30;27.77;;;;;;;41.48;34.71;100885.06;4997856;28;20439;-73
2022/10/31 05:00:11;;;;;;;42.00;25.00;;;;;;;41.31;34.66;100892.22;4965785;28;20534;-73
2022/10/31 05:02:52;;;;;;;33.53;24.00;;;;;;;41.47;34.28;100897.09;4981775;28;20456;-73
2022/10/31 05:05:21;;;;;;;27.83;20.70;;;;;;;41.58;34.29;100892.88;4981592;28;20480;-74
2022/10/31 05:07:48;;;;;;;36.07;22.13;;;;;;;41.76;34.29;100897.09;4997035;28;20836;-74
2022/10/31 05:10:16;;;;;;;41.40;22.43;;;;;;;41.81;33.81;100894.16;4997153;28;20455;-74
2022/10/31 05:12:51;;;;;;;36.73;19.50;;;;;;;41.74;34.25;100899.34;4997622;28;20929;-74
2022/10/31 05:15:18;;;;;;;31.80;18.27;;;;;;;41.81;33.99;100902.34;4997972;28;20884;-73
2022/10/31 05:17:44;;;;;;;30.80;17.30;;;;;;;41.76;34.04;100899.81;4981235;28;20420;-73
2022/10/31 05:20:12;;;;;;;32.00;18.07;;;;;;;41.63;34.51;100902.78;4981392;28;20428;-73
2022/10/31 05:22:49;;;;;;;25.53;16.57;;;;;;;41.39;34.86;100895.25;4997787;28;21025;-73
2022/10/31 05:25:15;;;;;;;30.03;16.20;;;;;;;41.39;34.25;100900.69;4992068;28;20472;-73
2022/10/31 05:27:43;;;;;;;38.00;16.93;;;;;;;41.51;34.82;100909.72;4994217;28;20532;-73
2022/10/31 05:30:12;;;;;;;29.37;16.70;;;;;;;41.52;34.48;100914.03;4984586;28;20430;-74
2022/10/31 05:32:44;;;;;;;30.13;15.67;;;;;;;41.20;34.72;100912.75;4974505;28;20538;-73
2022/10/31 05:35:14;;;;;;;31.27;17.47;;;;;;;41.48;34.78;100910.38;4974400;28;20522;-73
2022/10/31 05:37:40;;;;;;;44.30;22.30;;;;;;;41.54;34.21;100910.97;4975766;28;20438;-73
2022/10/31 05:40:08;;;;;;;34.33;21.77;;;;;;;41.47;34.77;100916.16;4974261;28;20456;-75
2022/10/31 05:42:34;;;;;;;40.97;23.10;;;;;;;41.32;34.89;100920.22;4974210;28;20434;-73
2022/10/31 05:45:00;;;;;;;35.83;22.87;;;;;;;41.61;34.56;100922.16;4974334;28;20466;-76
2022/10/31 05:47:27;;;;;;;36.43;24.17;;;;;;;41.68;34.04;100922.44;4974234;28;20454;-71
2022/10/31 05:49:53;;;;;;;31.63;23.40;;;;;;;41.51;34.72;100925.28;4973942;28;20430;-71
2022/10/31 05:52:19;;;;;;;41.07;23.90;;;;;;;41.56;34.43;100930.53;4964903;28;20421;-72
2022/10/31 05:54:45;;;;;;;37.63;23.90;;;;;;;41.26;34.96;100921.53;4966098;28;20461;-72
2022/10/31 05:57:11;;;;;;;34.43;24.13;;;;;;;40.92;35.21;100925.19;4975790;28;20899;-71
2022/10/31 05:59:37;;;;;;;33.23;23.10;;;;;;;41.08;35.36;100932.50;4973918;28;20257;-71
2022/10/31 06:02:03;;;;;;;32.20;22.10;;;;;;;40.99;35.02;100933.66;4974117;28;20428;-71
2022/10/31 06:04:29;;;;;;;41.43;24.90;;;;;;;40.96;35.48;100929.66;4975294;28;20450;-71
2022/10/31 06:06:56;;;;;;;37.37;23.77;;;;;;;40.92;35.19;100933.34;4966613;28;20532;-75
2022/10/31 06:09:22;;;;;;;38.93;25.83;;;;;;;40.77;35.59;100948.25;4966555;28;20590;-74
2022/10/31 06:11:48;;;;;;;40.10;26.30;;;;;;;40.76;35.55;100952.91;4965149;28;20434;-74
2022/10/31 06:14:14;;;;;;;36.10;25.30;;;;;;;41.04;35.23;100961.47;4963279;28;20474;-74
2022/10/31 06:16:40;;;;;;;43.03;28.07;;;;;;;40.95;35.38;100958.00;4964911;28;20473;-73
2022/10/31 06:19:06;;;;;;;39.37;26.50;;;;;;;41.30;34.92;100963.28;4962776;28;20970;-71
2022/10/31 06:21:32;;;;;;;44.30;28.40;;;;;;;41.37;34.87;100965.53;4964932;28;20183;-71
2022/10/31 06:23:58;;;;;;;57.83;31.37;;;;;;;41.39;34.59;100966.03;4980252;28;21059;-72
2022/10/31 06:26:24;;;;;;;55.17;34.17;;;;;;;41.21;34.77;100971.50;4983454;28;20290;-72
2022/10/31 06:28:50;;;;;;;60.33;39.60;;;;;;;41.18;35.20;100969.44;4975534;28;20425;-72
2022/10/31 06:31:16;;;;;;;49.33;36.63;;;;;;;41.22;35.10;100970.38;4973496;28;20674;-72
2022/10/31 06:33:42;;;;;;;54.57;35.70;;;;;;;41.15;34.94;100980.19;4974073;28;20839;-71
2022/10/31 06:36:09;;;;;;;50.37;32.17;;;;;;;41.20;35.05;100980.00;4987814;28;20414;-71
2022/10/31 06:38:35;;;;;;;38.57;28.70;;;;;;;41.32;34.58;100991.00;4989246;28;20473;-71
2022/10/31 06:41:07;;;;;;;48.83;29.73;;;;;;;41.49;34.80;100993.66;4966136;28;20417;-71
2022/10/31 06:43:33;;;;;;;46.27;31.63;;;;;;;41.63;34.52;100996.16;4976135;28;20976;-74
2022/10/31 06:46:03;;;;;;;41.63;28.30;;;;;;;41.51;34.32;101004.25;4994080;28;20441;-72
2022/10/31 06:48:29;;;;;;;40.03;24.10;;;;;;;41.83;34.14;101009.06;4955226;28;20528;-68
2022/10/31 06:50:59;;;;;;;42.43;28.20;;;;;;;41.43;34.21;100999.63;4964670;28;20505;-68
2022/10/31 06:53:25;;;;;;;45.37;27.17;;;;;;;41.18;34.48;101002.09;4974322;28;20654;-69
2022/10/31 06:55:51;;;;;;;37.63;29.20;;;;;;;40.74;35.27;101003.28;4974526;28;20457;-69
2022/10/31 06:58:16;;;;;;;45.90;27.57;;;;;;;41.01;35.01;101005.69;4968553;28;20617;-67
2022/10/31 07:00:42;;;;;;;38.07;29.43;;;;;;;41.23;34.72;101001.91;4975535;23;20798;-72
2022/10/31 07:03:13;;;;;;;43.20;28.23;;;;;;;41.68;33.90;101016.94;4967656;28;20218;-71
2022/10/31 07:05:39;;;;;;;42.27;29.57;;;;;;;41.92;33.95;101013.63;4974297;28;20442;-70
2022/10/31 07:08:09;;;;;;;52.93;36.07;;;;;;;42.23;33.67;101016.81;4964021;28;20420;-69
2022/10/31 07:10:36;;;;;;;47.50;30.10;;;;;;;42.34;33.47;101020.72;4962100;28;20997;-68
2022/10/31 07:13:06;;;;;;;42.10;30.10;;;;;;;42.51;33.48;101027.97;4947827;28;20969;-69
2022/10/31 07:15:37;;;;;;;56.43;30.97;;;;;;;42.56;33.05;101029.72;4946050;28;21015;-72
2022/10/31 07:18:08;;;;;;;45.73;29.60;;;;;;;42.67;32.98;101033.66;4967726;28;20434;-68
2022/10/31 07:20:34;;;;;;;42.20;28.47;;;;;;;42.75;32.72;101043.66;4953936;29;20522;-70
2022/10/31 07:23:00;;;;;;;42.20;28.57;;;;;;;42.73;33.11;101042.44;4953559;29;20914;-68
2022/10/31 07:25:26;;;;;;;47.83;30.33;;;;;;;42.70;33.25;101045.81;4957722;28;20414;-69
2022/10/31 07:27:53;;;;;;;45.30;31.57;;;;;;;42.50;33.17;101058.31;4957000;28;20464;-68
2022/10/31 07:30:19;;;;;;;42.37;26.90;;;;;;;42.74;32.87;101060.38;4972617;28;20434;-68
2022/10/31 07:32:48;;;;;;;39.93;29.40;;;;;;;42.82;32.95;101068.47;4960964;28;20449;-69
2022/10/31 07:35:19;;;;;;;37.10;25.73;;;;;;;42.66;32.96;101067.50;4949885;28;20470;-71
2022/10/31 07:37:45;;;;;;;35.53;25.80;;;;;;;42.55;33.47;101069.81;4959172;28;20863;-69
2022/10/31 07:40:12;;;;;;;37.90;21.70;;;;;;;42.20;34.03;101065.75;4947537;28;20542;-68
2022/10/31 07:42:40;;;;;;;29.90;21.37;;;;;;;41.97;34.33;101076.13;4963443;28;20431;-70
2022/10/31 07:45:08;;;;;;;36.10;24.80;;;;;;;42.34;33.64;101074.47;4963868;28;20438;-70
2022/10/31 07:47:48;;;;;;;32.70;23.37;;;;;;;42.46;33.68;101076.47;4947303;28;20536;-68
2022/10/31 07:50:20;;;;;;;42.10;22.87;;;;;;;42.61;33.29;101078.63;4952935;28;20419;-69
2022/10/31 07:52:46;;;;;;;23.40;15.57;;;;;;;42.82;33.30;101078.59;4953015;28;20426;-69
2022/10/31 07:55:13;;;;;;;23.43;16.47;;;;;;;42.89;33.07;101076.13;4936736;29;20503;-69
2022/10/31 07:57:39;;;;;;;27.77;14.93;;;;;;;42.82;33.32;101082.13;4954121;28;20470;-69
2022/10/31 08:00:09;;;;;;;25.37;15.50;;;;;;;42.93;33.32;101090.69;4952905;28;20496;-68
2022/10/31 08:02:35;;;;;;;20.00;10.70;;;;;;;42.97;33.25;101091.63;4952882;28;20429;-69
2022/10/31 08:05:01;;;;;;;19.27;8.70;;;;;;;42.75;33.29;101087.31;4952769;28;20454;-69
2022/10/31 08:07:28;;;;;;;22.17;9.67;;;;;;;42.87;33.17;101092.03;4937014;28;20506;-69
2022/10/31 08:09:55;;;;;;;15.03;10.20;;;;;;;42.84;33.00;101090.75;4949363;28;20432;-69
2022/10/31 08:12:21;;;;;;;14.70;8.40;;;;;;;42.61;33.63;101084.88;4946668;28;21031;-69
2022/10/31 08:14:47;;;;;;;15.83;9.00;;;;;;;42.44;34.03;101086.91;4950331;29;20460;-68
2022/10/31 08:17:13;;;;;;;23.67;12.33;;;;;;;42.48;33.82;101085.09;4949997;29;20463;-70
2022/10/31 08:19:39;;;;;;;19.40;9.30;;;;;;;42.65;33.39;101085.00;4949603;28;20412;-69
2022/10/31 08:22:05;;;;;;;18.30;10.87;;;;;;;42.71;33.47;101082.88;4955923;28;20230;-68
2022/10/31 08:24:31;;;;;;;20.97;9.67;;;;;;;42.83;33.13;101086.44;4952847;28;20569;-69
2022/10/31 08:26:57;;;;;;;17.23;9.90;;;;;;;42.76;33.04;101083.47;4954379;28;20399;-69
2022/10/31 08:29:23;;;;;;;16.70;10.77;;;;;;;42.71;33.64;101089.13;4953194;29;20687;-70
2022/10/31 08:31:48;;;;;;;18.40;10.23;;;;;;;42.51;33.48;101090.69;4952266;28;20231;-70
2022/10/31 08:34:14;;;;;;;18.70;8.73;;;;;;;42.75;33.38;101083.81;4953727;28;20439;-68
2022/10/31 08:36:42;;;;;;;20.33;10.60;;;;;;;42.87;33.48;101086.56;4954143;28;20447;-69
2022/10/31 08:39:08;;;;;;;18.03;12.43;;;;;;;42.87;33.09;101092.84;4952667;28;20904;-69
2022/10/31 08:41:35;;;;;;;22.60;9.97;;;;;;;42.69;33.27;101093.31;4937124;29;20501;-68
2022/10/31 08:44:01;;;;;;;11.97;8.73;;;;;;;42.83;32.94;101091.91;4955276;28;20494;-68
2022/10/31 08:46:27;;;;;;;20.70;8.90;;;;;;;42.97;32.96;101099.00;4956237;28;20415;-68
2022/10/31 08:48:53;;;;;;;19.07;10.17;;;;;;;42.96;32.91;101100.91;4956148;28;20478;-69
2022/10/31 08:51:19;;;;;;;19.67;11.53;;;;;;;43.00;33.06;101095.63;4956694;28;20415;-69
2022/10/31 08:53:44;;;;;;;17.03;10.50;;;;;;;42.99;33.10;101097.56;4957744;28;20464;-69
2022/10/31 08:56:10;;;;;;;21.00;10.07;;;;;;;43.03;33.51;101094.94;4957396;28;20419;-71
2022/10/31 08:58:36;;;;;;;26.50;13.73;;;;;;;43.10;33.08;101100.69;4956192;28;20257;-73
2022/10/31 09:01:02;;;;;;;17.50;12.07;;;;;;;43.10;33.14;101096.00;4955723;28;20266;-72
2022/10/31 09:03:30;;;;;;;24.63;13.30;;;;;;;43.09;33.51;101099.06;4955894;29;20251;-72
2022/10/31 09:05:58;;;;;;;26.73;11.63;;;;;;;43.12;33.20;101106.59;4955883;29;20443;-75
2022/10/31 09:08:24;;;;;;;16.60;9.27;;;;;;;43.03;33.15;101100.41;4955820;29;20987;-74
2022/10/31 09:10:50;;;;;;;20.47;8.73;;;;;;;42.98;32.99;101101.44;4955707;29;20471;-73
2022/10/31 09:13:19;;;;;;;10.17;5.13;;;;;;;43.00;32.91;101106.56;4955615;29;20928;-73
2022/10/31 09:15:48;;;;;;;11.47;6.23;;;;;;;43.06;32.93;101105.22;4957023;28;20453;-74
2022/10/31 09:18:16;;;;;;;14.70;5.80;;;;;;;43.00;32.93;101104.63;4955656;29;20514;-73
2022/10/31 09:20:43;;;;;;;17.80;7.27;;;;;;;43.09;32.83;101102.59;4955591;29;20570;-73
2022/10/31 09:23:12;;;;;;;17.90;8.00;;;;;;;43.17;32.75;101107.19;4955407;29;20857;-73
2022/10/31 09:25:38;;;;;;;13.47;7.27;;;;;;;43.19;32.73;101098.63;4955490;28;20457;-72
2022/10/31 09:28:05;;;;;;;15.10;5.70;;;;;;;43.18;32.72;101100.56;4955250;29;20447;-73
2022/10/31 09:30:33;;;;;;;14.13;7.60;;;;;;;43.15;32.55;101100.44;4951749;29;20442;-73
2022/10/31 09:33:01;;;;;;;14.77;7.43;;;;;;;43.33;32.63;101103.78;4951252;29;20448;-73
2022/10/31 09:35:27;;;;;;;18.13;6.27;;;;;;;43.56;32.53;101107.72;4936115;29;20424;-73
2022/10/31 09:37:58;;;;;;;13.63;6.10;;;;;;;43.51;32.20;101104.41;4952137;29;20507;-73
2022/10/31 09:40:35;;;;;;;11.73;5.50;;;;;;;43.51;31.86;101094.28;4937592;29;20862;-73
2022/10/31 09:43:22;;;;;;;13.63;6.23;;;;;;;43.34;32.34;101099.91;4937445;29;20460;-72
2022/10/31 09:46:07;;;;;;;14.83;5.83;;;;;;;43.66;32.21;101101.03;4952002;29;20940;-73
2022/10/31 09:48:44;;;;;;;13.03;6.23;;;;;;;43.64;31.97;101109.53;4935863;29;20530;-72
2022/10/31 09:51:21;;;;;;;14.53;5.37;;;;;;;43.69;32.00;101103.06;4935868;29;20424;-74
2022/10/31 09:54:10;;;;;;;21.63;5.10;;;;;;;43.72;31.86;101105.13;4935688;29;20507;-72
2022/10/31 09:56:37;;;;;;;16.93;5.47;;;;;;;43.56;32.37;101105.00;4951935;28;20420;-72
2022/10/31 09:59:11;;;;;;;14.10;6.03;;;;;;;43.71;31.59;101109.00;4954852;29;20877;-71
2022/10/31 10:01:47;;;;;;;18.03;6.57;;;;;;;43.72;32.14;101102.41;4975121;28;21070;-72
2022/10/31 10:04:39;;;;;;;9.47;5.83;;;;;;;43.77;31.77;101099.44;4957962;28;20458;-72
2022/10/31 10:07:30;;;;;;;16.57;7.10;;;;;;;43.54;31.94;101087.34;4957935;28;20504;-77
2022/10/31 10:09:57;;;;;;;14.27;6.10;;;;;;;43.55;31.81;101094.41;4957792;28;20438;-71
2022/10/31 10:13:02;;;;;;;15.43;5.00;;;;;;;43.61;31.67;101093.06;4942200;28;20419;-71
2022/10/31 10:15:45;;;;;;;12.03;6.20;;;;;;;43.71;32.14;101093.41;4941862;28;20522;-71
2022/10/31 10:18:14;;;;;;;13.40;5.80;;;;;;;43.68;31.63;101094.06;4941694;28;20949;-71
2022/10/31 10:20:59;;;;;;;13.83;5.63;;;;;;;43.76;31.39;101092.34;4957777;28;20446;-71
2022/10/31 10:23:53;;;;;;;11.60;5.50;;;;;;;43.61;31.78;101082.91;4974925;28;20458;-71
2022/10/31 10:26:46;;;;;;;13.53;5.87;;;;;;;43.37;31.89;101083.66;4957523;28;20514;-71
2022/10/31 10:29:37;;;;;;;13.87;5.67;;;;;;;43.50;31.71;101080.97;4944953;28;20430;-71
2022/10/31 10:32:13;;;;;;;16.10;5.70;;;;;;;43.59;31.85;101078.94;4957506;28;20947;-71
2022/10/31 10:34:49;;;;;;;10.20;5.60;;;;;;;43.54;31.94;101070.97;4941846;28;20442;-71
2022/10/31 10:37:30;;;;;;;13.70;6.30;;;;;;;43.65;31.61;101070.19;4957197;28;20478;-71
2022/10/31 10:40:07;;;;;;;15.70;6.93;;;;;;;43.17;32.20;101062.69;4974006;28;20520;-71
2022/10/31 10:48:15;;;;;;;13.20;6.00;;;;;;;43.67;31.15;101059.69;4960309;28;20396;-72
2022/10/31 10:50:48;;;;;;;12.23;6.13;;;;;;;43.81;31.16;101045.72;4957126;28;20526;-72
2022/10/31 10:53:35;;;;;;;14.60;5.90;;;;;;;43.76;31.40;101048.63;4957040;28;20434;-72
2022/10/31 10:56:09;;;;;;;11.63;6.40;;;;;;;43.65;31.20;101053.78;4974627;28;20895;-72
2022/10/31 10:58:37;;;;;;;26.80;9.40;;;;;;;43.72;31.32;101042.28;4957003;28;20505;-72
2022/10/31 11:01:11;;;;;;;15.17;6.87;;;;;;;43.88;31.06;101036.94;4956764;28;20481;-71
2022/10/31 11:03:37;;;;;;;16.37;5.90;;;;;;;43.87;31.32;101036.13;4941244;28;20982;-71
2022/10/31 11:06:03;;;;;;;22.83;6.63;;;;;;;44.01;31.17;101029.50;4956298;28;20811;-71
2022/10/31 11:08:34;;;;;;;13.10;6.37;;;;;;;44.00;31.07;101027.91;4956709;28;20461;-71
2022/10/31 11:11:29;;;;;;;14.83;7.37;;;;;;;43.79;30.86;101025.34;4956814;28;20438;-71
2022/10/31 11:14:12;;;;;;;14.80;7.80;;;;;;;43.84;31.55;101023.19;4956723;28;21007;-71
2022/10/31 11:16:45;;;;;;;11.10;6.67;;;;;;;43.63;31.72;101017.00;4956797;28;20426;-71
2022/10/31 11:19:26;;;;;;;14.70;6.33;;;;;;;43.68;31.61;101011.31;4941017;28;20422;-71
2022/10/31 11:21:53;;;;;;;15.80;6.73;;;;;;;43.60;31.79;101013.03;4956695;28;20493;-71
2022/10/31 11:24:26;;;;;;;17.77;6.90;;;;;;;43.76;31.36;101010.38;4974126;28;20877;-71
2022/10/31 11:27:03;;;;;;;14.17;7.00;;;;;;;43.77;31.46;101008.44;4956481;28;20458;-71
2022/10/31 11:29:28;;;;;;;29.00;7.27;;;;;;;43.84;31.42;101000.53;4956567;28;20433;-71
2022/10/31 11:32:00;;;;;;;14.30;6.40;;;;;;;43.72;31.74;101004.03;4956522;28;20431;-71
2022/10/31 11:34:36;;;;;;;26.47;7.97;;;;;;;43.58;31.77;101004.38;4956522;28;20181;-71
2022/10/31 11:37:15;;;;;;;15.93;6.97;;;;;;;43.28;31.97;101005.69;4956436;28;20512;-71